Hitchcock, TX (77563)

6:59 PM CST on March 01, 2015 (GMT -0600)
APRSWXNET La Marque TX US | Change Station
CLOSE
Current Station
Personal Weather Station
Location: Bayou Vista, TX
Elevation: 39 ft
Nearby Weather Stations
Active Advisory: Dense Fog Advisory Active Notice: Public Information Statement

Elev 39 ft 29.36 °N, 95.00 °W | Updated 25 minutes ago

Overcast
Overcast
67 °F
Feels Like 67 °F
N
0
Wind Variable Wind from SE
Gusts 3.0 mph

Today
High -- | Low -- °F
--% Chance of Precip.
Yesterday
High -- | Low -- °F
Precip. -- in
6:45 AM 6:19 PM
Waxing Gibbous, 88% visible
Pressure 30.19 in
Visibility 0.5 miles
Clouds
Dew Point 66 °F
Humidity 97%
Rainfall 0.30 in
Snow Depth Not available.
UV Not available.
Pollen 6.40 out of 12
Air Quality Not available.
Flu Activity Not available.
METAR KGLS 020052Z AUTO 00000KT 1/2SM FG VV002 18/18 A3018 RMK AO2 SLP221 T01830183 $

More Conditions Fewer Conditions

Pressure 30.19 in
Visibility 0.5 miles
Clouds
Dew Point 66 °F
Humidity 97%
Rainfall 0.30 in
Snow Depth Not available.
UV Not available.
Pollen 6.40 out of 12
Air Quality Not available.
Flu Activity Not available.
METAR KGLS 020052Z AUTO 00000KT 1/2SM FG VV002 18/18 A3018 RMK AO2 SLP221 T01830183 $

More Conditions Fewer Conditions

10-Day Weather Forecast

Almanac

Astronomy

Mar. 01, 2015 Rise Set
Actual Time
Civil Twilight
Nautical Twilight
Astronomical Twilight
Moon
Length of Visible Light
Length of Day
Tomorrow will be .
, % of the Moon is Illuminated

Today's Extremes

State Highs State Lows

Community

WunderPhotos

Upload Photos

1,801,659 photos uploaded!

WunderBlogs® & News

Nearby

Air Quality

  Air Quality AQ Index Pollutant
Not available.

Snow Depth

Station Depth Elevation

Earthquake Activity

City Distance Mag. Time & Date
Minimum magnitude displayed is 2.5.

Coastal Water Temperatures

Place Temperature

Nearby Weather Stations

Dense Fog Advisory
Statement as of 3:17 PM CST on March 01, 2015

... Dense fog advisory remains in effect until 10 PM CST this
evening...

* event... dense fog reducing visibility.

* Timing... this afternoon and tonight.

* Impact... visibility reduced to a quarter mile or less at times
impacting travel conditions.

Precautionary/preparedness actions...

A dense fog advisory means visibilities will frequently be
reduced to less than one quarter mile. If driving... slow down...
use your headlights... and leave plenty of distance ahead of you.